sensor_id;sensor_type;location;lat;lon;timestamp;temperature;humidity
10249;DHT22;5169;50.560;9.714;2023-02-12T00:02:25;5.10;99.90
10249;DHT22;5169;50.560;9.714;2023-02-12T00:04:51;5.10;99.90
10249;DHT22;5169;50.560;9.714;2023-02-12T00:07:16;5.10;99.90
10249;DHT22;5169;50.560;9.714;2023-02-12T00:09:42;5.10;99.90
10249;DHT22;5169;50.560;9.714;2023-02-12T00:12:08;5.10;99.90
10249;DHT22;5169;50.560;9.714;2023-02-12T00:14:36;5.20;99.90
10249;DHT22;5169;50.560;9.714;2023-02-12T00:17:02;5.20;99.90
10249;DHT22;5169;50.560;9.714;2023-02-12T00:19:29;5.20;99.90
10249;DHT22;5169;50.560;9.714;2023-02-12T00:21:54;5.10;99.90
10249;DHT22;5169;50.560;9.714;2023-02-12T00:24:20;5.10;99.90
10249;DHT22;5169;50.560;9.714;2023-02-12T00:26:46;5.00;99.90
10249;DHT22;5169;50.560;9.714;2023-02-12T00:29:13;5.10;99.90
10249;DHT22;5169;50.560;9.714;2023-02-12T00:31:39;5.10;99.90
10249;DHT22;5169;50.560;9.714;2023-02-12T00:34:05;5.20;99.90
10249;DHT22;5169;50.560;9.714;2023-02-12T00:36:31;5.10;99.90
10249;DHT22;5169;50.560;9.714;2023-02-12T00:38:58;5.10;99.90
10249;DHT22;5169;50.560;9.714;2023-02-12T00:41:25;5.00;99.90
10249;DHT22;5169;50.560;9.714;2023-02-12T00:43:53;5.20;99.90
10249;DHT22;5169;50.560;9.714;2023-02-12T00:46:19;5.30;99.90
10249;DHT22;5169;50.560;9.714;2023-02-12T00:48:45;5.20;99.90
10249;DHT22;5169;50.560;9.714;2023-02-12T00:51:14;5.20;99.90
10249;DHT22;5169;50.560;9.714;2023-02-12T00:53:42;5.20;99.90
10249;DHT22;5169;50.560;9.714;2023-02-12T00:56:10;5.10;99.90
10249;DHT22;5169;50.560;9.714;2023-02-12T00:58:38;5.00;99.90
10249;DHT22;5169;50.560;9.714;2023-02-12T01:01:06;5.00;99.90
10249;DHT22;5169;50.560;9.714;2023-02-12T01:03:31;5.10;99.90
10249;DHT22;5169;50.560;9.714;2023-02-12T01:05:59;5.10;99.90
10249;DHT22;5169;50.560;9.714;2023-02-12T01:08:25;5.00;99.90
10249;DHT22;5169;50.560;9.714;2023-02-12T01:11:00;5.00;99.90
10249;DHT22;5169;50.560;9.714;2023-02-12T01:13:27;5.00;99.90
10249;DHT22;5169;50.560;9.714;2023-02-12T01:16:07;5.00;99.90
10249;DHT22;5169;50.560;9.714;2023-02-12T01:18:34;5.00;99.90
10249;DHT22;5169;50.560;9.714;2023-02-12T01:21:00;4.90;99.90
10249;DHT22;5169;50.560;9.714;2023-02-12T01:23:28;5.10;99.90
10249;DHT22;5169;50.560;9.714;2023-02-12T01:25:54;5.00;99.90
10249;DHT22;5169;50.560;9.714;2023-02-12T01:28:22;5.20;99.90
10249;DHT22;5169;50.560;9.714;2023-02-12T01:30:47;5.30;99.90
10249;DHT22;5169;50.560;9.714;2023-02-12T01:33:13;5.30;99.90
10249;DHT22;5169;50.560;9.714;2023-02-12T01:35:41;5.20;99.90
10249;DHT22;5169;50.560;9.714;2023-02-12T01:38:06;5.20;99.90
10249;DHT22;5169;50.560;9.714;2023-02-12T01:40:32;5.20;99.90
10249;DHT22;5169;50.560;9.714;2023-02-12T01:43:00;5.30;99.90
10249;DHT22;5169;50.560;9.714;2023-02-12T01:47:53;5.40;99.90
10249;DHT22;5169;50.560;9.714;2023-02-12T01:50:19;5.50;99.90
10249;DHT22;5169;50.560;9.714;2023-02-12T01:52:53;5.30;99.90
10249;DHT22;5169;50.560;9.714;2023-02-12T01:55:23;5.30;99.90
10249;DHT22;5169;50.560;9.714;2023-02-12T01:57:49;5.40;99.90
10249;DHT22;5169;50.560;9.714;2023-02-12T02:00:26;5.30;99.90
10249;DHT22;5169;50.560;9.714;2023-02-12T02:02:55;5.30;99.90
10249;DHT22;5169;50.560;9.714;2023-02-12T02:05:54;5.30;99.90
10249;DHT22;5169;50.560;9.714;2023-02-12T02:08:21;5.40;99.90
10249;DHT22;5169;50.560;9.714;2023-02-12T02:10:47;5.60;99.90
10249;DHT22;5169;50.560;9.714;2023-02-12T02:13:15;5.60;99.90
10249;DHT22;5169;50.560;9.714;2023-02-12T02:16:05;5.50;99.90
10249;DHT22;5169;50.560;9.714;2023-02-12T02:18:46;5.40;99.90
10249;DHT22;5169;50.560;9.714;2023-02-12T02:22:01;5.60;99.90
10249;DHT22;5169;50.560;9.714;2023-02-12T02:33:03;5.60;99.90
10249;DHT22;5169;50.560;9.714;2023-02-12T02:38:20;5.60;99.90
10249;DHT22;5169;50.560;9.714;2023-02-12T02:41:00;5.70;99.90
10249;DHT22;5169;50.560;9.714;2023-02-12T02:43:37;5.70;99.90
10249;DHT22;5169;50.560;9.714;2023-02-12T02:46:10;5.60;99.90
10249;DHT22;5169;50.560;9.714;2023-02-12T02:48:40;5.70;99.90
10249;DHT22;5169;50.560;9.714;2023-02-12T02:51:32;5.60;99.90
10249;DHT22;5169;50.560;9.714;2023-02-12T02:54:30;5.50;99.90
10249;DHT22;5169;50.560;9.714;2023-02-12T02:57:11;5.50;99.90
10249;DHT22;5169;50.560;9.714;2023-02-12T02:59:43;5.50;99.90
10249;DHT22;5169;50.560;9.714;2023-02-12T03:02:36;5.40;99.90
10249;DHT22;5169;50.560;9.714;2023-02-12T03:05:18;5.30;99.90
10249;DHT22;5169;50.560;9.714;2023-02-12T03:07:52;5.40;99.90
10249;DHT22;5169;50.560;9.714;2023-02-12T03:10:28;5.50;99.90
10249;DHT22;5169;50.560;9.714;2023-02-12T03:13:51;5.30;99.90
10249;DHT22;5169;50.560;9.714;2023-02-12T03:19:02;5.30;99.90
10249;DHT22;5169;50.560;9.714;2023-02-12T03:21:40;5.20;99.90
10249;DHT22;5169;50.560;9.714;2023-02-12T03:24:28;5.20;99.90
10249;DHT22;5169;50.560;9.714;2023-02-12T03:27:08;5.20;99.90
10249;DHT22;5169;50.560;9.714;2023-02-12T03:29:34;5.10;99.90
10249;DHT22;5169;50.560;9.714;2023-02-12T03:40:41;4.90;99.90
10249;DHT22;5169;50.560;9.714;2023-02-12T03:43:26;5.00;99.90
10249;DHT22;5169;50.560;9.714;2023-02-12T03:46:32;5.20;99.90
10249;DHT22;5169;50.560;9.714;2023-02-12T03:51:29;5.30;99.90
10249;DHT22;5169;50.560;9.714;2023-02-12T03:54:00;5.40;99.90
10249;DHT22;5169;50.560;9.714;2023-02-12T03:59:04;5.40;99.90
10249;DHT22;5169;50.560;9.714;2023-02-12T04:01:32;5.30;99.90
10249;DHT22;5169;50.560;9.714;2023-02-12T04:04:03;5.30;99.90
10249;DHT22;5169;50.560;9.714;2023-02-12T04:06:29;5.20;99.90
10249;DHT22;5169;50.560;9.714;2023-02-12T04:09:01;5.20;99.90
10249;DHT22;5169;50.560;9.714;2023-02-12T04:14:26;5.10;99.90
10249;DHT22;5169;50.560;9.714;2023-02-12T04:17:11;5.10;99.90
10249;DHT22;5169;50.560;9.714;2023-02-12T04:33:16;5.40;99.90
10249;DHT22;5169;50.560;9.714;2023-02-12T04:36:08;5.50;99.90
10249;DHT22;5169;50.560;9.714;2023-02-12T04:38:52;5.60;99.90
10249;DHT22;5169;50.560;9.714;2023-02-12T04:41:22;5.50;99.90
10249;DHT22;5169;50.560;9.714;2023-02-12T04:43:48;5.50;99.90
10249;DHT22;5169;50.560;9.714;2023-02-12T04:46:14;5.60;99.90
10249;DHT22;5169;50.560;9.714;2023-02-12T04:48:57;5.50;99.90
10249;DHT22;5169;50.560;9.714;2023-02-12T04:51:25;5.30;99.90
10249;DHT22;5169;50.560;9.714;2023-02-12T04:53:51;5.30;99.90
10249;DHT22;5169;50.560;9.714;2023-02-12T04:56:16;5.40;99.90
10249;DHT22;5169;50.560;9.714;2023-02-12T04:58:42;5.30;99.90
10249;DHT22;5169;50.560;9.714;2023-02-12T05:01:09;5.30;99.90
10249;DHT22;5169;50.560;9.714;2023-02-12T05:03:35;5.40;99.90
10249;DHT22;5169;50.560;9.714;2023-02-12T05:06:05;5.40;99.90
10249;DHT22;5169;50.560;9.714;2023-02-12T05:08:31;5.50;99.90
10249;DHT22;5169;50.560;9.714;2023-02-12T05:11:01;5.50;99.90
10249;DHT22;5169;50.560;9.714;2023-02-12T05:13:27;5.60;99.90
10249;DHT22;5169;50.560;9.714;2023-02-12T05:15:53;5.50;99.90
10249;DHT22;5169;50.560;9.714;2023-02-12T05:18:19;5.60;99.90
10249;DHT22;5169;50.560;9.714;2023-02-12T05:20:44;5.50;99.90
10249;DHT22;5169;50.560;9.714;2023-02-12T05:23:10;5.50;99.90
10249;DHT22;5169;50.560;9.714;2023-02-12T05:25:36;5.60;99.90
10249;DHT22;5169;50.560;9.714;2023-02-12T05:28:01;5.60;99.90
10249;DHT22;5169;50.560;9.714;2023-02-12T05:30:27;5.80;99.90
10249;DHT22;5169;50.560;9.714;2023-02-12T05:32:53;5.70;99.90
10249;DHT22;5169;50.560;9.714;2023-02-12T05:35:19;5.80;99.90
10249;DHT22;5169;50.560;9.714;2023-02-12T05:37:44;5.70;99.90
10249;DHT22;5169;50.560;9.714;2023-02-12T05:40:10;5.60;99.90
10249;DHT22;5169;50.560;9.714;2023-02-12T05:42:36;5.50;99.90
10249;DHT22;5169;50.560;9.714;2023-02-12T05:45:02;5.50;99.90
10249;DHT22;5169;50.560;9.714;2023-02-12T05:47:28;5.60;99.90
10249;DHT22;5169;50.560;9.714;2023-02-12T05:49:55;5.60;99.90
10249;DHT22;5169;50.560;9.714;2023-02-12T05:52:23;5.50;99.90
10249;DHT22;5169;50.560;9.714;2023-02-12T05:54:51;5.50;99.90
10249;DHT22;5169;50.560;9.714;2023-02-12T05:57:17;5.40;99.90
10249;DHT22;5169;50.560;9.714;2023-02-12T05:59:45;5.30;99.90
10249;DHT22;5169;50.560;9.714;2023-02-12T06:02:11;5.30;99.90
10249;DHT22;5169;50.560;9.714;2023-02-12T06:04:36;5.30;99.90
10249;DHT22;5169;50.560;9.714;2023-02-12T06:07:02;5.30;99.90
10249;DHT22;5169;50.560;9.714;2023-02-12T06:09:28;5.30;99.90
10249;DHT22;5169;50.560;9.714;2023-02-12T06:11:53;5.20;99.90
10249;DHT22;5169;50.560;9.714;2023-02-12T06:14:20;5.20;99.90
10249;DHT22;5169;50.560;9.714;2023-02-12T06:16:49;5.20;99.90
10249;DHT22;5169;50.560;9.714;2023-02-12T06:19:18;5.20;99.90
10249;DHT22;5169;50.560;9.714;2023-02-12T06:21:47;5.40;99.90
10249;DHT22;5169;50.560;9.714;2023-02-12T06:24:14;5.50;99.90
10249;DHT22;5169;50.560;9.714;2023-02-12T06:26:42;5.40;99.90
10249;DHT22;5169;50.560;9.714;2023-02-12T06:29:08;5.20;99.90
10249;DHT22;5169;50.560;9.714;2023-02-12T06:31:37;5.20;99.90
10249;DHT22;5169;50.560;9.714;2023-02-12T06:34:06;5.10;99.90
10249;DHT22;5169;50.560;9.714;2023-02-12T06:36:45;5.00;99.90
10249;DHT22;5169;50.560;9.714;2023-02-12T06:39:12;4.90;99.90
10249;DHT22;5169;50.560;9.714;2023-02-12T06:41:38;4.80;99.90
10249;DHT22;5169;50.560;9.714;2023-02-12T06:44:04;4.90;99.90
10249;DHT22;5169;50.560;9.714;2023-02-12T06:46:33;5.00;99.90
10249;DHT22;5169;50.560;9.714;2023-02-12T06:48:59;5.00;99.90
10249;DHT22;5169;50.560;9.714;2023-02-12T06:51:30;5.00;99.90
10249;DHT22;5169;50.560;9.714;2023-02-12T06:53:57;5.00;99.90
10249;DHT22;5169;50.560;9.714;2023-02-12T06:56:24;5.00;99.90
10249;DHT22;5169;50.560;9.714;2023-02-12T06:58:55;5.10;99.90
10249;DHT22;5169;50.560;9.714;2023-02-12T07:01:24;5.20;99.90
10249;DHT22;5169;50.560;9.714;2023-02-12T07:03:55;5.40;99.90
10249;DHT22;5169;50.560;9.714;2023-02-12T07:06:22;5.60;99.90
10249;DHT22;5169;50.560;9.714;2023-02-12T07:08:51;5.80;99.90
10249;DHT22;5169;50.560;9.714;2023-02-12T07:11:17;5.80;99.90
10249;DHT22;5169;50.560;9.714;2023-02-12T07:13:44;5.80;99.90
10249;DHT22;5169;50.560;9.714;2023-02-12T07:16:11;5.90;99.90
10249;DHT22;5169;50.560;9.714;2023-02-12T07:18:37;5.70;99.90
10249;DHT22;5169;50.560;9.714;2023-02-12T07:21:05;5.70;99.90
10249;DHT22;5169;50.560;9.714;2023-02-12T07:23:33;5.70;99.90
10249;DHT22;5169;50.560;9.714;2023-02-12T07:26:09;5.70;99.90
10249;DHT22;5169;50.560;9.714;2023-02-12T07:28:35;5.70;99.90
10249;DHT22;5169;50.560;9.714;2023-02-12T07:31:11;5.70;99.90
10249;DHT22;5169;50.560;9.714;2023-02-12T07:33:40;5.70;99.90
10249;DHT22;5169;50.560;9.714;2023-02-12T07:36:19;5.70;99.90
10249;DHT22;5169;50.560;9.714;2023-02-12T07:38:47;5.80;99.90
10249;DHT22;5169;50.560;9.714;2023-02-12T07:41:19;5.80;99.90
10249;DHT22;5169;50.560;9.714;2023-02-12T07:43:47;5.80;99.90
10249;DHT22;5169;50.560;9.714;2023-02-12T07:46:19;5.80;99.90
10249;DHT22;5169;50.560;9.714;2023-02-12T07:48:50;5.80;99.90
10249;DHT22;5169;50.560;9.714;2023-02-12T07:51:17;5.80;99.90
10249;DHT22;5169;50.560;9.714;2023-02-12T07:53:46;5.80;99.90
10249;DHT22;5169;50.560;9.714;2023-02-12T07:56:17;5.90;99.90
10249;DHT22;5169;50.560;9.714;2023-02-12T07:58:44;6.00;99.90
10249;DHT22;5169;50.560;9.714;2023-02-12T08:01:19;5.90;99.90
10249;DHT22;5169;50.560;9.714;2023-02-12T08:03:46;6.00;99.90
10249;DHT22;5169;50.560;9.714;2023-02-12T08:06:14;6.10;99.90
10249;DHT22;5169;50.560;9.714;2023-02-12T08:08:44;6.10;99.90
10249;DHT22;5169;50.560;9.714;2023-02-12T08:11:11;6.10;99.90
10249;DHT22;5169;50.560;9.714;2023-02-12T08:13:41;6.10;99.90
10249;DHT22;5169;50.560;9.714;2023-02-12T08:16:12;6.00;99.90
10249;DHT22;5169;50.560;9.714;2023-02-12T08:18:39;5.90;99.90
10249;DHT22;5169;50.560;9.714;2023-02-12T08:21:07;6.00;99.90
10249;DHT22;5169;50.560;9.714;2023-02-12T08:23:34;5.90;99.90
10249;DHT22;5169;50.560;9.714;2023-02-12T08:26:13;5.90;99.90
10249;DHT22;5169;50.560;9.714;2023-02-12T08:28:42;5.90;99.90
10249;DHT22;5169;50.560;9.714;2023-02-12T08:31:11;5.90;99.90
10249;DHT22;5169;50.560;9.714;2023-02-12T08:33:37;5.80;99.90
10249;DHT22;5169;50.560;9.714;2023-02-12T08:36:07;5.90;99.90
10249;DHT22;5169;50.560;9.714;2023-02-12T08:38:41;6.20;99.90
10249;DHT22;5169;50.560;9.714;2023-02-12T08:41:10;6.20;99.90
10249;DHT22;5169;50.560;9.714;2023-02-12T08:43:39;6.20;99.90
10249;DHT22;5169;50.560;9.714;2023-02-12T08:46:14;6.20;99.90
10249;DHT22;5169;50.560;9.714;2023-02-12T08:48:41;6.50;99.90
10249;DHT22;5169;50.560;9.714;2023-02-12T08:51:16;6.70;99.90
10249;DHT22;5169;50.560;9.714;2023-02-12T08:53:44;6.80;99.90
10249;DHT22;5169;50.560;9.714;2023-02-12T08:56:15;6.90;99.90
10249;DHT22;5169;50.560;9.714;2023-02-12T08:58:42;6.80;99.90
10249;DHT22;5169;50.560;9.714;2023-02-12T09:01:10;6.80;99.90
10249;DHT22;5169;50.560;9.714;2023-02-12T09:03:39;6.70;99.90
10249;DHT22;5169;50.560;9.714;2023-02-12T09:06:08;6.70;99.90
10249;DHT22;5169;50.560;9.714;2023-02-12T09:08:35;6.90;99.90
10249;DHT22;5169;50.560;9.714;2023-02-12T09:11:11;6.80;99.90
10249;DHT22;5169;50.560;9.714;2023-02-12T09:13:41;6.80;99.90
10249;DHT22;5169;50.560;9.714;2023-02-12T09:16:07;7.10;99.90
10249;DHT22;5169;50.560;9.714;2023-02-12T09:18:36;7.10;99.90
10249;DHT22;5169;50.560;9.714;2023-02-12T09:21:08;7.10;99.90
10249;DHT22;5169;50.560;9.714;2023-02-12T09:23:38;7.10;99.90
10249;DHT22;5169;50.560;9.714;2023-02-12T09:26:08;7.20;99.90
10249;DHT22;5169;50.560;9.714;2023-02-12T09:28:37;7.40;99.90
10249;DHT22;5169;50.560;9.714;2023-02-12T09:31:09;7.60;99.90
10249;DHT22;5169;50.560;9.714;2023-02-12T09:33:38;7.70;99.90
10249;DHT22;5169;50.560;9.714;2023-02-12T09:36:11;7.80;99.90
10249;DHT22;5169;50.560;9.714;2023-02-12T09:38:37;8.00;99.90
10249;DHT22;5169;50.560;9.714;2023-02-12T09:41:35;8.10;99.90
10249;DHT22;5169;50.560;9.714;2023-02-12T09:52:19;8.30;99.90
10249;DHT22;5169;50.560;9.714;2023-02-12T09:54:47;8.30;99.90
10249;DHT22;5169;50.560;9.714;2023-02-12T09:57:20;8.30;99.90
10249;DHT22;5169;50.560;9.714;2023-02-12T10:00:10;8.40;99.90
10249;DHT22;5169;50.560;9.714;2023-02-12T10:02:52;8.60;99.90
10249;DHT22;5169;50.560;9.714;2023-02-12T10:05:41;8.50;99.90
10249;DHT22;5169;50.560;9.714;2023-02-12T10:22:42;8.50;99.90
10249;DHT22;5169;50.560;9.714;2023-02-12T10:28:12;8.20;99.90
10249;DHT22;5169;50.560;9.714;2023-02-12T10:30:43;8.00;99.90
10249;DHT22;5169;50.560;9.714;2023-02-12T10:33:20;7.90;99.90
10249;DHT22;5169;50.560;9.714;2023-02-12T10:35:52;8.30;99.90
10249;DHT22;5169;50.560;9.714;2023-02-12T10:38:39;8.30;99.90
10249;DHT22;5169;50.560;9.714;2023-02-12T10:41:09;8.20;99.90
10249;DHT22;5169;50.560;9.714;2023-02-12T10:43:37;8.20;99.90
10249;DHT22;5169;50.560;9.714;2023-02-12T10:46:05;8.60;99.90
10249;DHT22;5169;50.560;9.714;2023-02-12T10:48:36;9.20;99.90
10249;DHT22;5169;50.560;9.714;2023-02-12T10:58:39;9.70;99.90
10249;DHT22;5169;50.560;9.714;2023-02-12T11:01:18;10.00;99.90
10249;DHT22;5169;50.560;9.714;2023-02-12T11:03:47;10.00;99.90
10249;DHT22;5169;50.560;9.714;2023-02-12T11:06:16;10.20;99.90
10249;DHT22;5169;50.560;9.714;2023-02-12T11:08:42;10.20;99.90
10249;DHT22;5169;50.560;9.714;2023-02-12T11:13:46;10.00;99.90
10249;DHT22;5169;50.560;9.714;2023-02-12T11:16:14;9.70;99.90
10249;DHT22;5169;50.560;9.714;2023-02-12T11:19:06;9.50;99.90
10249;DHT22;5169;50.560;9.714;2023-02-12T11:21:35;9.30;99.90
10249;DHT22;5169;50.560;9.714;2023-02-12T11:24:30;9.10;99.90
10249;DHT22;5169;50.560;9.714;2023-02-12T11:29:42;8.90;99.90
10249;DHT22;5169;50.560;9.714;2023-02-12T11:32:15;8.90;99.90
10249;DHT22;5169;50.560;9.714;2023-02-12T11:34:41;9.00;99.90
10249;DHT22;5169;50.560;9.714;2023-02-12T11:37:16;9.00;99.90
10249;DHT22;5169;50.560;9.714;2023-02-12T11:39:47;9.00;99.90
10249;DHT22;5169;50.560;9.714;2023-02-12T11:42:21;9.00;99.90
10249;DHT22;5169;50.560;9.714;2023-02-12T11:44:55;9.00;99.90
10249;DHT22;5169;50.560;9.714;2023-02-12T11:47:29;9.00;99.90
10249;DHT22;5169;50.560;9.714;2023-02-12T11:50:00;9.00;99.90
10249;DHT22;5169;50.560;9.714;2023-02-12T11:52:33;9.10;99.90
10249;DHT22;5169;50.560;9.714;2023-02-12T11:55:02;9.00;99.90
10249;DHT22;5169;50.560;9.714;2023-02-12T11:57:38;9.10;99.90
10249;DHT22;5169;50.560;9.714;2023-02-12T12:00:21;9.00;99.90
10249;DHT22;5169;50.560;9.714;2023-02-12T12:03:11;8.90;99.90
10249;DHT22;5169;50.560;9.714;2023-02-12T12:05:43;8.90;99.90
10249;DHT22;5169;50.560;9.714;2023-02-12T12:08:30;8.80;99.90
10249;DHT22;5169;50.560;9.714;2023-02-12T12:11:13;8.80;99.90
10249;DHT22;5169;50.560;9.714;2023-02-12T12:13:53;8.70;99.90
10249;DHT22;5169;50.560;9.714;2023-02-12T12:16:40;8.80;99.90
10249;DHT22;5169;50.560;9.714;2023-02-12T12:25:34;8.80;99.90
10249;DHT22;5169;50.560;9.714;2023-02-12T12:33:37;8.70;99.90
10249;DHT22;5169;50.560;9.714;2023-02-12T12:57:19;8.80;99.90
10249;DHT22;5169;50.560;9.714;2023-02-12T13:03:26;8.70;99.90
10249;DHT22;5169;50.560;9.714;2023-02-12T13:08:57;8.70;99.90
10249;DHT22;5169;50.560;9.714;2023-02-12T13:20:17;9.10;99.90
10249;DHT22;5169;50.560;9.714;2023-02-12T13:22:55;9.30;99.90
10249;DHT22;5169;50.560;9.714;2023-02-12T13:28:32;9.10;99.90
10249;DHT22;5169;50.560;9.714;2023-02-12T13:30:59;9.00;99.90
10249;DHT22;5169;50.560;9.714;2023-02-12T13:33:47;9.00;99.90
10249;DHT22;5169;50.560;9.714;2023-02-12T13:36:16;9.00;99.90
10249;DHT22;5169;50.560;9.714;2023-02-12T13:38:50;8.90;99.90
10249;DHT22;5169;50.560;9.714;2023-02-12T13:41:17;8.80;99.90
10249;DHT22;5169;50.560;9.714;2023-02-12T13:49:44;8.90;99.90
10249;DHT22;5169;50.560;9.714;2023-02-12T13:57:29;8.40;99.90
10249;DHT22;5169;50.560;9.714;2023-02-12T13:59:57;8.40;99.90
10249;DHT22;5169;50.560;9.714;2023-02-12T14:07:50;8.60;99.90
10249;DHT22;5169;50.560;9.714;2023-02-12T14:13:09;8.60;99.90
10249;DHT22;5169;50.560;9.714;2023-02-12T14:15:42;8.70;99.90
10249;DHT22;5169;50.560;9.714;2023-02-12T14:18:22;8.60;99.90
10249;DHT22;5169;50.560;9.714;2023-02-12T14:23:38;8.50;99.90
10249;DHT22;5169;50.560;9.714;2023-02-12T14:28:59;8.40;99.90
10249;DHT22;5169;50.560;9.714;2023-02-12T14:31:30;8.30;99.90
10249;DHT22;5169;50.560;9.714;2023-02-12T14:41:51;8.30;99.90
10249;DHT22;5169;50.560;9.714;2023-02-12T14:46:55;8.20;99.90
10249;DHT22;5169;50.560;9.714;2023-02-12T14:57:25;8.20;99.90
10249;DHT22;5169;50.560;9.714;2023-02-12T15:02:54;8.30;99.90
10249;DHT22;5169;50.560;9.714;2023-02-12T15:05:33;8.20;99.90
10249;DHT22;5169;50.560;9.714;2023-02-12T15:08:06;8.20;99.90
10249;DHT22;5169;50.560;9.714;2023-02-12T15:10:40;8.30;99.90
10249;DHT22;5169;50.560;9.714;2023-02-12T15:13:30;8.20;99.90
10249;DHT22;5169;50.560;9.714;2023-02-12T15:16:12;8.10;99.90
10249;DHT22;5169;50.560;9.714;2023-02-12T15:18:59;8.10;99.90
10249;DHT22;5169;50.560;9.714;2023-02-12T15:21:28;8.10;99.90
10249;DHT22;5169;50.560;9.714;2023-02-12T15:24:13;8.10;99.90
10249;DHT22;5169;50.560;9.714;2023-02-12T15:26:50;8.10;99.90
10249;DHT22;5169;50.560;9.714;2023-02-12T15:29:29;8.00;99.90
10249;DHT22;5169;50.560;9.714;2023-02-12T15:32:03;8.00;99.90
10249;DHT22;5169;50.560;9.714;2023-02-12T15:34:32;7.90;99.90
10249;DHT22;5169;50.560;9.714;2023-02-12T15:37:02;7.90;99.90
10249;DHT22;5169;50.560;9.714;2023-02-12T15:39:43;7.90;99.90
10249;DHT22;5169;50.560;9.714;2023-02-12T15:42:33;7.90;99.90
10249;DHT22;5169;50.560;9.714;2023-02-12T15:47:53;7.70;99.90
10249;DHT22;5169;50.560;9.714;2023-02-12T15:50:19;7.70;99.90
10249;DHT22;5169;50.560;9.714;2023-02-12T15:52:48;7.60;99.90
10249;DHT22;5169;50.560;9.714;2023-02-12T15:55:27;7.70;99.90
10249;DHT22;5169;50.560;9.714;2023-02-12T15:57:57;7.70;99.90
10249;DHT22;5169;50.560;9.714;2023-02-12T16:00:31;7.70;99.90
10249;DHT22;5169;50.560;9.714;2023-02-12T16:02:59;7.70;99.90
10249;DHT22;5169;50.560;9.714;2023-02-12T16:05:25;7.70;99.90
10249;DHT22;5169;50.560;9.714;2023-02-12T16:07:52;7.70;99.90
10249;DHT22;5169;50.560;9.714;2023-02-12T16:10:18;7.70;99.90
10249;DHT22;5169;50.560;9.714;2023-02-12T16:12:48;7.70;99.90
10249;DHT22;5169;50.560;9.714;2023-02-12T16:15:31;7.60;99.90
10249;DHT22;5169;50.560;9.714;2023-02-12T16:17:59;7.60;99.90
10249;DHT22;5169;50.560;9.714;2023-02-12T16:20:29;7.70;99.90
10249;DHT22;5169;50.560;9.714;2023-02-12T16:22:55;7.60;99.90
10249;DHT22;5169;50.560;9.714;2023-02-12T16:25:32;7.60;99.90
10249;DHT22;5169;50.560;9.714;2023-02-12T16:30:33;7.40;99.90
10249;DHT22;5169;50.560;9.714;2023-02-12T16:33:30;7.50;99.90
10249;DHT22;5169;50.560;9.714;2023-02-12T16:36:00;7.40;99.90
10249;DHT22;5169;50.560;9.714;2023-02-12T16:38:45;7.40;99.90
10249;DHT22;5169;50.560;9.714;2023-02-12T16:43:44;7.60;99.90
10249;DHT22;5169;50.560;9.714;2023-02-12T16:46:11;7.50;99.90
10249;DHT22;5169;50.560;9.714;2023-02-12T16:48:46;7.60;99.90
10249;DHT22;5169;50.560;9.714;2023-02-12T16:51:27;7.60;99.90
10249;DHT22;5169;50.560;9.714;2023-02-12T16:53:57;7.50;99.90
10249;DHT22;5169;50.560;9.714;2023-02-12T16:56:27;7.60;99.90
10249;DHT22;5169;50.560;9.714;2023-02-12T16:58:58;7.60;99.90
10249;DHT22;5169;50.560;9.714;2023-02-12T17:01:30;7.60;99.90
10249;DHT22;5169;50.560;9.714;2023-02-12T17:04:00;7.50;99.90
10249;DHT22;5169;50.560;9.714;2023-02-12T17:06:29;7.50;99.90
10249;DHT22;5169;50.560;9.714;2023-02-12T17:08:56;7.50;99.90
10249;DHT22;5169;50.560;9.714;2023-02-12T17:11:25;7.40;99.90
10249;DHT22;5169;50.560;9.714;2023-02-12T17:13:54;7.50;99.90
10249;DHT22;5169;50.560;9.714;2023-02-12T17:16:21;7.50;99.90
10249;DHT22;5169;50.560;9.714;2023-02-12T17:18:47;7.50;99.90
10249;DHT22;5169;50.560;9.714;2023-02-12T17:23:44;7.30;99.90
10249;DHT22;5169;50.560;9.714;2023-02-12T17:26:10;7.30;99.90
10249;DHT22;5169;50.560;9.714;2023-02-12T17:28:37;7.40;99.90
10249;DHT22;5169;50.560;9.714;2023-02-12T17:31:09;7.40;99.90
10249;DHT22;5169;50.560;9.714;2023-02-12T17:33:35;7.40;99.90
10249;DHT22;5169;50.560;9.714;2023-02-12T17:36:04;7.40;99.90
10249;DHT22;5169;50.560;9.714;2023-02-12T17:38:30;7.30;99.90
10249;DHT22;5169;50.560;9.714;2023-02-12T17:40:56;7.20;99.90
10249;DHT22;5169;50.560;9.714;2023-02-12T17:43:22;7.10;99.90
10249;DHT22;5169;50.560;9.714;2023-02-12T17:45:47;7.20;99.90
10249;DHT22;5169;50.560;9.714;2023-02-12T17:48:15;7.10;99.90
10249;DHT22;5169;50.560;9.714;2023-02-12T17:50:41;7.10;99.90
10249;DHT22;5169;50.560;9.714;2023-02-12T17:53:08;7.10;99.90
10249;DHT22;5169;50.560;9.714;2023-02-12T17:55:38;7.10;99.90
10249;DHT22;5169;50.560;9.714;2023-02-12T17:58:04;7.00;99.90
10249;DHT22;5169;50.560;9.714;2023-02-12T18:00:33;7.00;99.90
10249;DHT22;5169;50.560;9.714;2023-02-12T18:02:58;7.00;99.90
10249;DHT22;5169;50.560;9.714;2023-02-12T18:05:24;7.10;99.90
10249;DHT22;5169;50.560;9.714;2023-02-12T18:07:50;7.00;99.90
10249;DHT22;5169;50.560;9.714;2023-02-12T18:10:15;7.00;99.90
10249;DHT22;5169;50.560;9.714;2023-02-12T18:12:41;7.10;99.90
10249;DHT22;5169;50.560;9.714;2023-02-12T18:15:08;7.00;99.90
10249;DHT22;5169;50.560;9.714;2023-02-12T18:17:35;7.00;99.90
10249;DHT22;5169;50.560;9.714;2023-02-12T18:20:01;7.00;99.90
10249;DHT22;5169;50.560;9.714;2023-02-12T18:22:26;6.90;99.90
10249;DHT22;5169;50.560;9.714;2023-02-12T18:24:52;6.90;99.90
10249;DHT22;5169;50.560;9.714;2023-02-12T18:27:19;6.90;99.90
10249;DHT22;5169;50.560;9.714;2023-02-12T18:29:47;6.80;99.90
10249;DHT22;5169;50.560;9.714;2023-02-12T18:32:15;6.80;99.90
10249;DHT22;5169;50.560;9.714;2023-02-12T18:34:42;6.80;99.90
10249;DHT22;5169;50.560;9.714;2023-02-12T18:37:09;6.80;99.90
10249;DHT22;5169;50.560;9.714;2023-02-12T18:39:36;6.80;99.90
10249;DHT22;5169;50.560;9.714;2023-02-12T18:42:02;6.90;99.90
10249;DHT22;5169;50.560;9.714;2023-02-12T18:44:30;6.90;99.90
10249;DHT22;5169;50.560;9.714;2023-02-12T18:46:56;6.90;99.90
10249;DHT22;5169;50.560;9.714;2023-02-12T18:49:27;6.90;99.90
10249;DHT22;5169;50.560;9.714;2023-02-12T18:51:53;6.90;99.90
10249;DHT22;5169;50.560;9.714;2023-02-12T18:54:19;6.90;99.90
10249;DHT22;5169;50.560;9.714;2023-02-12T18:56:47;6.80;99.90
10249;DHT22;5169;50.560;9.714;2023-02-12T18:59:16;6.80;99.90
10249;DHT22;5169;50.560;9.714;2023-02-12T19:01:42;6.90;99.90
10249;DHT22;5169;50.560;9.714;2023-02-12T19:04:09;6.90;99.90
10249;DHT22;5169;50.560;9.714;2023-02-12T19:06:53;6.90;99.90
10249;DHT22;5169;50.560;9.714;2023-02-12T19:09:24;7.00;99.90
10249;DHT22;5169;50.560;9.714;2023-02-12T19:11:52;7.00;99.90
10249;DHT22;5169;50.560;9.714;2023-02-12T19:14:19;6.90;99.90
10249;DHT22;5169;50.560;9.714;2023-02-12T19:16:46;7.00;99.90
10249;DHT22;5169;50.560;9.714;2023-02-12T19:19:13;7.00;99.90
10249;DHT22;5169;50.560;9.714;2023-02-12T19:21:41;7.10;99.90
10249;DHT22;5169;50.560;9.714;2023-02-12T19:24:10;7.10;99.90
10249;DHT22;5169;50.560;9.714;2023-02-12T19:26:39;7.10;99.90
10249;DHT22;5169;50.560;9.714;2023-02-12T19:29:06;7.10;99.90
10249;DHT22;5169;50.560;9.714;2023-02-12T19:31:37;7.10;99.90
10249;DHT22;5169;50.560;9.714;2023-02-12T19:34:07;7.10;99.90
10249;DHT22;5169;50.560;9.714;2023-02-12T19:36:35;7.20;99.90
10249;DHT22;5169;50.560;9.714;2023-02-12T19:39:02;7.00;99.90
10249;DHT22;5169;50.560;9.714;2023-02-12T19:41:29;7.10;99.90